Time;durP1;ratioP1;P1;durP2;ratioP2;P2;SDS_P1;SDS_P2;PMS_P1;PMS_P2;Temp;Humidity;BMP_temperature;BMP_pressure;BME280_temperature;BME280_humidity;BME280_pressure;Samples;Min_cycle;Max_cycle;Signal;HPM_P1;HPM_P2
2021/06/09 00:01:40;;;;;;;39.00;24.50;;;15.20;99.90;;;;;;5113367;28;20496;-59
2021/06/09 00:04:06;;;;;;;29.88;22.92;;;15.10;99.90;;;;;;5113135;28;20563;-58
2021/06/09 00:06:31;;;;;;;30.65;22.77;;;15.10;99.90;;;;;;5112483;28;20499;-58
2021/06/09 00:08:57;;;;;;;31.25;23.02;;;15.10;99.90;;;;;;5114253;28;20024;-58
2021/06/09 00:11:23;;;;;;;35.38;23.55;;;15.10;99.90;;;;;;5112860;28;20031;-59
2021/06/09 00:13:49;;;;;;;31.58;23.73;;;15.00;99.90;;;;;;5114018;28;20035;-59
2021/06/09 00:16:17;;;;;;;34.58;24.88;;;15.00;99.90;;;;;;5110262;28;20490;-59
2021/06/09 00:18:43;;;;;;;34.92;23.85;;;15.00;99.90;;;;;;5112541;28;20032;-59
2021/06/09 00:21:09;;;;;;;31.83;22.30;;;15.00;99.90;;;;;;5113018;28;20112;-59
2021/06/09 00:23:35;;;;;;;35.00;23.10;;;15.00;99.90;;;;;;5113556;28;20070;-56
2021/06/09 00:26:03;;;;;;;31.60;23.80;;;14.90;99.90;;;;;;5112029;28;20527;-59
2021/06/09 00:28:30;;;;;;;34.95;25.00;;;14.90;99.90;;;;;;5113270;28;20084;-56
2021/06/09 00:30:56;;;;;;;33.15;24.08;;;14.90;99.90;;;;;;5112201;28;20857;-59
2021/06/09 00:33:25;;;;;;;34.08;23.75;;;14.80;99.90;;;;;;5112802;28;20035;-59
2021/06/09 00:35:51;;;;;;;30.17;23.48;;;14.80;99.90;;;;;;5111694;28;20451;-56
2021/06/09 00:38:17;;;;;;;35.30;24.05;;;14.80;99.90;;;;;;5112778;28;20390;-58
2021/06/09 00:40:42;;;;;;;34.33;24.00;;;14.80;99.90;;;;;;5112828;28;20028;-58
2021/06/09 00:43:17;;;;;;;31.38;23.05;;;14.70;99.90;;;;;;5112656;28;20023;-59
2021/06/09 00:45:45;;;;;;;31.42;22.67;;;14.80;99.90;;;;;;5112005;28;20039;-59
2021/06/09 00:48:11;;;;;;;37.30;22.17;;;14.80;99.90;;;;;;5112743;28;20039;-59
2021/06/09 00:50:37;;;;;;;33.50;22.77;;;14.80;99.90;;;;;;5112910;28;20024;-57
2021/06/09 00:55:48;;;;;;;39.58;25.83;;;14.70;99.90;;;;;;5110309;28;20042;-54
2021/06/09 00:58:14;;;;;;;36.15;25.92;;;14.70;99.90;;;;;;5110132;28;20509;-58
2021/06/09 01:00:41;;;;;;;32.22;24.42;;;14.70;99.90;;;;;;5112330;28;20027;-57
2021/06/09 01:03:07;;;;;;;36.13;26.20;;;14.60;99.90;;;;;;5112804;28;20027;-59
2021/06/09 01:05:34;;;;;;;34.30;24.85;;;14.60;99.90;;;;;;5111231;28;20394;-57
2021/06/09 01:08:01;;;;;;;36.00;25.48;;;14.60;99.90;;;;;;5110922;28;20501;-58
2021/06/09 01:10:27;;;;;;;34.22;25.63;;;14.50;99.90;;;;;;5111807;28;20206;-58
2021/06/09 01:12:55;;;;;;;39.95;26.75;;;14.50;99.90;;;;;;5109774;28;20107;-57
2021/06/09 01:15:20;;;;;;;36.10;25.45;;;14.50;99.90;;;;;;5106356;28;20033;-58
2021/06/09 01:17:46;;;;;;;37.60;28.27;;;14.50;99.90;;;;;;5109416;28;20020;-59
2021/06/09 01:20:12;;;;;;;38.38;27.85;;;14.50;99.90;;;;;;5112134;28;20031;-59
2021/06/09 01:22:38;;;;;;;43.00;28.90;;;14.40;99.90;;;;;;5111772;28;20436;-58
2021/06/09 01:25:06;;;;;;;39.72;27.15;;;14.40;99.90;;;;;;5111184;28;20047;-57
2021/06/09 01:27:31;;;;;;;36.22;27.15;;;14.40;99.90;;;;;;5106722;28;20031;-59
2021/06/09 01:29:59;;;;;;;41.17;27.40;;;14.40;99.90;;;;;;5112464;28;20020;-58
2021/06/09 01:32:24;;;;;;;41.22;27.92;;;14.40;99.90;;;;;;5111987;28;20035;-56
2021/06/09 01:34:50;;;;;;;40.80;29.00;;;14.30;99.90;;;;;;5111635;28;20024;-59
2021/06/09 01:37:17;;;;;;;38.80;26.95;;;14.30;99.90;;;;;;5110104;28;20415;-58
2021/06/09 01:39:43;;;;;;;45.30;29.02;;;14.30;99.90;;;;;;5112318;28;20032;-58
2021/06/09 01:42:08;;;;;;;41.83;27.48;;;14.20;99.90;;;;;;5111312;28;20172;-58
2021/06/09 01:44:38;;;;;;;47.55;30.65;;;14.20;99.90;;;;;;5114873;22;20043;-64
2021/06/09 01:47:03;;;;;;;39.78;29.80;;;14.20;99.90;;;;;;5073173;28;20403;-64
2021/06/09 01:49:30;;;;;;;41.42;28.48;;;14.10;99.90;;;;;;5071117;28;20024;-65
2021/06/09 01:51:55;;;;;;;41.88;28.65;;;14.10;99.90;;;;;;5059959;28;20049;-64
2021/06/09 01:54:22;;;;;;;42.85;29.30;;;14.10;99.90;;;;;;5050440;28;20102;-65
2021/06/09 01:56:48;;;;;;;47.58;30.65;;;14.10;99.90;;;;;;5070742;28;20024;-64
2021/06/09 01:59:17;;;;;;;42.35;30.00;;;14.10;99.90;;;;;;5071055;28;20032;-63
2021/06/09 02:01:44;;;;;;;43.03;30.00;;;14.10;99.90;;;;;;5069037;28;20029;-64
2021/06/09 02:04:12;;;;;;;42.97;29.20;;;14.10;99.90;;;;;;5061336;28;20024;-64
2021/06/09 02:06:39;;;;;;;38.35;28.20;;;14.10;99.90;;;;;;5084400;28;20487;-64
2021/06/09 02:09:05;;;;;;;39.20;29.50;;;14.10;99.90;;;;;;5071015;28;20386;-65
2021/06/09 02:11:31;;;;;;;40.13;29.13;;;14.00;99.90;;;;;;5069611;28;20487;-64
2021/06/09 02:13:58;;;;;;;39.65;28.52;;;14.00;99.90;;;;;;5076402;28;20020;-65
2021/06/09 02:16:23;;;;;;;45.92;30.30;;;14.00;99.90;;;;;;5080552;28;20029;-65
2021/06/09 02:18:49;;;;;;;37.40;27.88;;;13.90;99.90;;;;;;5075951;28;20028;-65
2021/06/09 02:21:15;;;;;;;43.50;29.65;;;13.90;99.90;;;;;;5071752;28;20091;-65
2021/06/09 02:23:46;;;;;;;42.17;29.10;;;14.00;99.90;;;;;;5080286;28;20409;-65
2021/06/09 02:26:11;;;;;;;39.15;29.25;;;14.00;99.90;;;;;;5064538;28;20045;-65
2021/06/09 02:28:38;;;;;;;40.58;28.67;;;14.00;99.90;;;;;;5068617;28;20097;-65
2021/06/09 02:31:04;;;;;;;37.55;27.08;;;13.90;99.90;;;;;;5072335;28;20063;-63
2021/06/09 02:33:29;;;;;;;37.13;26.30;;;14.00;99.90;;;;;;5082967;28;20052;-64
2021/06/09 02:35:58;;;;;;;40.13;27.88;;;14.00;99.90;;;;;;5078997;28;20062;-64
2021/06/09 02:38:24;;;;;;;41.78;29.40;;;13.90;99.90;;;;;;5078407;28;20024;-64
2021/06/09 02:40:52;;;;;;;41.53;29.80;;;13.90;99.90;;;;;;5069637;28;20036;-64
2021/06/09 02:43:19;;;;;;;41.08;29.13;;;13.90;99.90;;;;;;5078742;28;20058;-64
2021/06/09 02:45:51;;;;;;;40.05;29.40;;;13.80;99.90;;;;;;5064715;28;20029;-64
2021/06/09 02:48:22;;;;;;;51.30;29.33;;;13.80;99.90;;;;;;5069369;28;20391;-64
2021/06/09 02:50:47;;;;;;;41.97;29.95;;;13.70;99.90;;;;;;5070085;28;20032;-64
2021/06/09 02:53:26;;;;;;;40.20;29.35;;;13.70;99.90;;;;;;5071112;28;20077;-64
2021/06/09 02:56:23;;;;;;;39.75;28.98;;;13.70;99.90;;;;;;5079964;28;20024;-64
2021/06/09 02:59:14;;;;;;;49.63;30.60;;;13.60;99.90;;;;;;5067156;28;20463;-64
2021/06/09 03:02:03;;;;;;;43.35;29.85;;;13.60;99.90;;;;;;5076397;28;20071;-64
2021/06/09 03:04:47;;;;;;;43.60;28.38;;;13.60;99.90;;;;;;5067684;28;20032;-65
2021/06/09 03:07:42;;;;;;;40.60;27.70;;;13.70;99.90;;;;;;5073275;28;20035;-65
2021/06/09 03:10:39;;;;;;;38.10;26.77;;;13.80;99.90;;;;;;5067435;28;20029;-64
2021/06/09 03:13:15;;;;;;;39.95;24.67;;;13.90;99.90;;;;;;5071364;28;20033;-65
2021/06/09 03:15:52;;;;;;;37.38;25.60;;;13.90;99.90;;;;;;5081423;28;20021;-65
2021/06/09 03:18:23;;;;;;;41.60;26.65;;;13.90;99.90;;;;;;5076649;28;20033;-65
2021/06/09 03:20:54;;;;;;;36.55;27.17;;;13.90;99.90;;;;;;5077353;28;20089;-65
2021/06/09 03:23:38;;;;;;;31.63;24.70;;;13.90;99.90;;;;;;5073812;28;20110;-64
2021/06/09 03:26:19;;;;;;;36.28;25.60;;;14.00;99.90;;;;;;5074445;28;20031;-64
2021/06/09 03:28:58;;;;;;;36.35;26.58;;;13.90;99.90;;;;;;5074952;28;20040;-65
2021/06/09 03:31:32;;;;;;;41.40;28.52;;;13.80;99.90;;;;;;5073611;28;20025;-65
2021/06/09 03:34:00;;;;;;;42.40;27.52;;;13.80;99.90;;;;;;5072219;28;20025;-65
2021/06/09 03:36:31;;;;;;;37.65;25.92;;;13.70;99.90;;;;;;5064270;28;20523;-64
2021/06/09 03:39:01;;;;;;;38.92;27.92;;;13.70;99.90;;;;;;5082793;28;20372;-64
2021/06/09 03:41:51;;;;;;;40.20;29.15;;;13.60;99.90;;;;;;5091447;28;20024;-65
2021/06/09 03:44:23;;;;;;;41.30;27.55;;;13.60;99.90;;;;;;5087453;28;20039;-64
2021/06/09 03:46:51;;;;;;;40.22;28.45;;;13.60;99.90;;;;;;5072751;28;20795;-65
2021/06/09 03:49:18;;;;;;;42.15;29.38;;;13.60;99.90;;;;;;5090463;28;20020;-64
2021/06/09 03:51:44;;;;;;;44.85;27.95;;;13.60;99.90;;;;;;5090652;28;20419;-65
2021/06/09 03:54:11;;;;;;;52.13;32.13;;;13.60;99.90;;;;;;5070111;28;20090;-64
2021/06/09 03:56:41;;;;;;;48.03;32.47;;;13.50;99.90;;;;;;5070253;28;20363;-64
2021/06/09 03:59:08;;;;;;;51.63;34.13;;;13.50;99.90;;;;;;5082927;28;20032;-64
2021/06/09 04:01:39;;;;;;;51.30;33.72;;;13.60;99.90;;;;;;5074633;28;20039;-65
2021/06/09 04:04:06;;;;;;;54.25;33.03;;;13.60;99.90;;;;;;5080281;28;20525;-64
2021/06/09 04:06:33;;;;;;;47.75;33.97;;;13.60;99.90;;;;;;5080518;28;20098;-65
2021/06/09 04:09:01;;;;;;;57.15;35.22;;;13.60;99.90;;;;;;5073431;28;20024;-65
2021/06/09 04:11:28;;;;;;;65.45;39.58;;;13.60;99.90;;;;;;5069215;28;20017;-65
2021/06/09 04:13:55;;;;;;;60.85;38.28;;;13.60;99.90;;;;;;5055014;28;20502;-64
2021/06/09 04:16:26;;;;;;;55.13;35.88;;;13.70;99.90;;;;;;5074069;28;20100;-65
2021/06/09 04:18:54;;;;;;;59.03;36.55;;;13.60;99.90;;;;;;5072859;28;20059;-65
2021/06/09 04:21:20;;;;;;;57.30;37.22;;;13.70;99.90;;;;;;5074504;28;20074;-65
2021/06/09 04:23:46;;;;;;;55.70;36.78;;;13.70;99.90;;;;;;5074343;28;20029;-64
2021/06/09 04:26:15;;;;;;;53.65;35.95;;;13.80;99.90;;;;;;5085430;28;20125;-65
2021/06/09 04:28:43;;;;;;;51.25;35.70;;;13.80;99.90;;;;;;5075298;28;20091;-64
2021/06/09 04:31:12;;;;;;;56.60;36.65;;;13.90;99.90;;;;;;5073182;28;20173;-64
2021/06/09 04:33:38;;;;;;;58.33;38.85;;;13.90;99.90;;;;;;5073688;28;20023;-64
2021/06/09 04:36:04;;;;;;;55.78;37.13;;;14.00;99.90;;;;;;5080622;28;20029;-64
2021/06/09 04:38:30;;;;;;;58.53;37.83;;;14.10;99.90;;;;;;5050658;28;20132;-64
2021/06/09 04:40:56;;;;;;;62.88;37.25;;;14.10;99.90;;;;;;5072196;28;20183;-64
2021/06/09 04:43:23;;;;;;;52.97;36.53;;;14.20;99.90;;;;;;5070942;28;20028;-64
2021/06/09 04:45:49;;;;;;;53.92;36.25;;;14.20;99.90;;;;;;5088232;28;20028;-64
2021/06/09 04:48:16;;;;;;;52.95;36.47;;;14.30;99.90;;;;;;5071517;28;20187;-64
2021/06/09 04:50:47;;;;;;;55.63;36.22;;;14.40;99.90;;;;;;5071050;28;20028;-64
2021/06/09 04:53:14;;;;;;;49.35;33.63;;;14.40;99.90;;;;;;5071316;28;20463;-65
2021/06/09 04:55:44;;;;;;;49.83;34.05;;;14.50;99.90;;;;;;5072581;28;20031;-64
2021/06/09 04:58:11;;;;;;;47.05;33.95;;;14.50;99.90;;;;;;5077397;28;20391;-65
2021/06/09 05:00:38;;;;;;;47.53;33.53;;;14.60;99.90;;;;;;5073097;28;20580;-66
2021/06/09 05:03:04;;;;;;;52.83;30.90;;;14.70;99.90;;;;;;5075519;28;20115;-65
2021/06/09 05:05:30;;;;;;;51.53;34.75;;;14.70;99.90;;;;;;5070577;28;20132;-66
2021/06/09 05:07:55;;;;;;;54.40;35.60;;;14.80;99.90;;;;;;5070860;28;20035;-66
2021/06/09 05:10:21;;;;;;;51.28;34.42;;;14.80;99.90;;;;;;5078531;28;20100;-65
2021/06/09 05:12:55;;;;;;;56.55;37.13;;;14.90;99.90;;;;;;5075563;28;20084;-65
2021/06/09 05:15:25;;;;;;;58.10;39.92;;;14.90;99.90;;;;;;5075249;28;20032;-65
2021/06/09 05:17:51;;;;;;;61.80;40.83;;;15.00;99.90;;;;;;5069920;28;20025;-65
2021/06/09 05:20:25;;;;;;;54.28;38.08;;;15.10;99.90;;;;;;5071033;28;20043;-65
2021/06/09 05:23:15;;;;;;;62.28;40.85;;;15.20;99.90;;;;;;5071040;28;20142;-65
2021/06/09 05:25:42;;;;;;;57.10;39.13;;;15.30;99.90;;;;;;5057040;28;20072;-66
2021/06/09 05:28:11;;;;;;;53.38;36.92;;;15.30;99.90;;;;;;5077400;28;20428;-65
2021/06/09 05:30:38;;;;;;;59.53;42.03;;;15.40;99.90;;;;;;5073134;28;20069;-65
2021/06/09 05:33:05;;;;;;;66.90;44.50;;;15.50;99.90;;;;;;5078056;28;20095;-65
2021/06/09 05:35:31;;;;;;;55.22;39.85;;;15.50;99.90;;;;;;5070760;28;20035;-66
2021/06/09 05:37:58;;;;;;;66.03;42.42;;;15.60;99.90;;;;;;5076297;28;20044;-66
2021/06/09 05:40:23;;;;;;;76.97;51.97;;;15.70;99.90;;;;;;5063332;28;20027;-65
2021/06/09 05:42:49;;;;;;;62.58;43.20;;;15.70;99.90;;;;;;5071701;28;20396;-66
2021/06/09 05:45:28;;;;;;;69.50;45.97;;;15.80;99.90;;;;;;5082600;28;20514;-66
2021/06/09 05:47:53;;;;;;;72.03;48.22;;;15.80;99.90;;;;;;5077539;28;20020;-65
2021/06/09 05:50:22;;;;;;;72.32;48.65;;;15.90;99.90;;;;;;5091641;28;20032;-65
2021/06/09 05:52:53;;;;;;;72.25;49.63;;;15.90;99.90;;;;;;5087241;28;20507;-65
2021/06/09 05:55:24;;;;;;;91.70;55.00;;;16.00;99.90;;;;;;5082981;28;20063;-65
2021/06/09 05:57:51;;;;;;;80.38;55.30;;;16.10;99.90;;;;;;5072136;28;20090;-66
2021/06/09 06:00:20;;;;;;;81.53;53.70;;;16.20;99.90;;;;;;5090835;28;20043;-66
2021/06/09 06:02:46;;;;;;;82.97;55.72;;;16.20;99.90;;;;;;5072239;28;20028;-64
2021/06/09 06:05:12;;;;;;;92.05;57.60;;;16.30;99.90;;;;;;5066800;28;20028;-64
2021/06/09 06:07:39;;;;;;;85.20;56.03;;;16.40;99.90;;;;;;5081434;28;20024;-64
2021/06/09 06:10:06;;;;;;;91.45;56.72;;;16.50;99.90;;;;;;5071500;28;20025;-64
2021/06/09 06:12:34;;;;;;;78.25;54.67;;;16.60;99.90;;;;;;5071039;28;20478;-64
2021/06/09 06:15:00;;;;;;;88.30;57.55;;;16.70;99.90;;;;;;5076821;28;20394;-64
2021/06/09 06:17:26;;;;;;;93.95;60.70;;;16.80;99.90;;;;;;5090124;28;20024;-65
2021/06/09 06:19:52;;;;;;;101.63;59.92;;;16.90;99.90;;;;;;5082176;28;20028;-65
2021/06/09 06:22:18;;;;;;;95.15;58.22;;;17.10;99.90;;;;;;5072491;28;20486;-64
2021/06/09 06:24:49;;;;;;;91.82;56.45;;;17.20;99.90;;;;;;5071915;28;20021;-64
2021/06/09 06:27:16;;;;;;;89.15;55.22;;;17.20;99.90;;;;;;5070815;28;20024;-65
2021/06/09 06:29:46;;;;;;;90.60;54.80;;;17.30;99.90;;;;;;5078250;28;20356;-66
2021/06/09 06:32:14;;;;;;;85.47;55.40;;;17.40;99.90;;;;;;5072056;28;20107;-64
2021/06/09 06:34:43;;;;;;;93.07;54.63;;;17.50;99.90;;;;;;5090583;28;20403;-64
2021/06/09 06:37:10;;;;;;;82.90;53.00;;;17.50;99.90;;;;;;5085607;28;20017;-59
2021/06/09 06:39:36;;;;;;;81.97;49.72;;;17.60;99.90;;;;;;5071749;28;20024;-64
2021/06/09 06:42:02;;;;;;;80.07;51.50;;;17.70;99.90;;;;;;5087383;28;20064;-63
2021/06/09 06:44:28;;;;;;;82.47;51.08;;;17.70;99.90;;;;;;5071135;28;20610;-64
2021/06/09 06:46:54;;;;;;;75.05;48.80;;;17.80;99.90;;;;;;5064055;28;20033;-63
2021/06/09 06:49:21;;;;;;;84.28;52.33;;;17.90;99.90;;;;;;5071471;28;20055;-63
2021/06/09 06:51:51;;;;;;;86.20;51.70;;;18.00;99.90;;;;;;5087659;28;20104;-63
2021/06/09 06:54:18;;;;;;;68.65;44.67;;;18.10;99.90;;;;;;5076432;28;20514;-64
2021/06/09 06:56:45;;;;;;;71.43;46.50;;;18.20;99.90;;;;;;5084374;28;20036;-63
2021/06/09 06:59:11;;;;;;;81.22;49.60;;;18.30;99.90;;;;;;5071474;28;20032;-62
2021/06/09 07:01:37;;;;;;;83.85;50.05;;;18.40;99.90;;;;;;5075029;28;20036;-64
2021/06/09 07:04:04;;;;;;;72.28;47.10;;;18.60;99.90;;;;;;5089981;28;20119;-63
2021/06/09 07:06:32;;;;;;;62.75;44.20;;;18.60;99.90;;;;;;5089899;28;20024;-66
2021/06/09 07:08:59;;;;;;;64.15;42.67;;;18.70;99.90;;;;;;5081041;28;20101;-65
2021/06/09 07:11:25;;;;;;;67.43;46.00;;;18.80;99.90;;;;;;5090247;28;20016;-64
2021/06/09 07:13:52;;;;;;;74.53;47.03;;;18.90;99.90;;;;;;5076831;28;20028;-66
2021/06/09 07:16:19;;;;;;;81.18;47.28;;;18.90;99.90;;;;;;5070445;28;20052;-65
2021/06/09 07:18:46;;;;;;;79.18;45.70;;;19.00;99.90;;;;;;5070311;28;20024;-65
2021/06/09 07:21:21;;;;;;;81.63;43.85;;;19.10;99.90;;;;;;5070644;28;20162;-65
2021/06/09 07:23:47;;;;;;;72.28;43.10;;;19.20;99.90;;;;;;5070559;28;20032;-65
2021/06/09 07:26:14;;;;;;;66.07;42.72;;;19.50;99.90;;;;;;5070153;28;20372;-65
2021/06/09 07:28:59;;;;;;;78.78;42.88;;;19.50;99.90;;;;;;5073602;28;20031;-66
2021/06/09 07:31:29;;;;;;;59.28;39.63;;;19.60;99.90;;;;;;5071637;28;20072;-65
2021/06/09 07:33:56;;;;;;;62.55;40.72;;;19.70;99.90;;;;;;5071053;28;20036;-63
2021/06/09 07:36:30;;;;;;;61.17;39.28;;;19.80;99.90;;;;;;5070269;28;20036;-64
2021/06/09 07:39:02;;;;;;;59.55;36.65;;;19.90;99.90;;;;;;5071017;28;20060;-64
2021/06/09 07:41:30;;;;;;;52.47;33.70;;;19.90;99.90;;;;;;5064973;28;20501;-65
2021/06/09 07:46:42;;;;;;;53.42;33.33;;;20.20;99.90;;;;;;5077635;28;20051;-60
2021/06/09 07:49:09;;;;;;;47.80;33.17;;;20.30;99.90;;;;;;5085291;28;20016;-62
2021/06/09 07:51:36;;;;;;;48.45;32.92;;;20.40;99.90;;;;;;5089249;28;20082;-62
2021/06/09 07:54:03;;;;;;;48.33;32.45;;;20.50;99.90;;;;;;5087563;28;20024;-61
2021/06/09 07:56:35;;;;;;;55.50;33.35;;;20.50;99.90;;;;;;5068490;28;20447;-62
2021/06/09 07:59:03;;;;;;;50.45;33.08;;;20.70;99.90;;;;;;5066964;28;20098;-62
2021/06/09 08:01:29;;;;;;;42.65;29.45;;;20.70;99.90;;;;;;5073015;28;20052;-62
2021/06/09 08:03:56;;;;;;;45.55;29.15;;;20.70;99.90;;;;;;5068562;28;20114;-62
2021/06/09 08:06:24;;;;;;;49.00;32.78;;;20.80;99.90;;;;;;5069865;28;20100;-62
2021/06/09 08:08:49;;;;;;;43.40;28.95;;;20.90;99.90;;;;;;5072643;28;20103;-61
2021/06/09 08:11:16;;;;;;;44.97;30.13;;;21.00;99.90;;;;;;5072653;28;20539;-62
2021/06/09 08:13:43;;;;;;;39.72;27.67;;;21.10;99.90;;;;;;5070849;28;20395;-60
2021/06/09 08:16:13;;;;;;;39.28;28.15;;;21.10;99.90;;;;;;5069059;28;20475;-62
2021/06/09 08:18:39;;;;;;;41.30;27.60;;;21.20;99.90;;;;;;5066653;28;20036;-62
2021/06/09 08:21:12;;;;;;;37.20;26.30;;;21.30;99.90;;;;;;5072375;28;20090;-62
2021/06/09 08:23:42;;;;;;;43.65;27.27;;;21.30;99.90;;;;;;5064844;28;20094;-62
2021/06/09 08:26:10;;;;;;;42.35;30.48;;;21.40;99.90;;;;;;5071373;28;20074;-62
2021/06/09 08:28:38;;;;;;;49.00;31.17;;;21.40;99.90;;;;;;5066755;28;20044;-62
2021/06/09 08:31:08;;;;;;;44.92;32.15;;;21.50;99.90;;;;;;5067782;28;20024;-62
2021/06/09 08:33:35;;;;;;;41.00;30.02;;;21.60;99.90;;;;;;5071951;28;20016;-63
2021/06/09 08:36:05;;;;;;;50.47;34.13;;;21.70;99.90;;;;;;5067913;28;20052;-62
2021/06/09 08:38:31;;;;;;;41.70;29.70;;;21.80;99.90;;;;;;5071080;28;20407;-62
2021/06/09 08:40:57;;;;;;;43.88;29.75;;;21.80;99.90;;;;;;5071588;28;20029;-62
2021/06/09 08:43:23;;;;;;;42.75;29.73;;;21.90;99.90;;;;;;5068027;28;20539;-62
2021/06/09 08:45:49;;;;;;;37.03;27.13;;;22.00;99.90;;;;;;5064337;28;20067;-62
2021/06/09 08:48:16;;;;;;;39.33;28.17;;;22.10;99.90;;;;;;5071464;28;20107;-63
2021/06/09 08:50:43;;;;;;;36.83;27.63;;;22.30;99.90;;;;;;5067675;28;20024;-62
2021/06/09 08:53:11;;;;;;;38.22;25.58;;;22.30;99.90;;;;;;5063690;28;20029;-62
2021/06/09 08:55:37;;;;;;;29.80;23.08;;;22.40;99.90;;;;;;5071557;28;20502;-63
2021/06/09 08:58:04;;;;;;;29.27;21.60;;;22.60;99.90;;;;;;5069717;28;20108;-62
2021/06/09 09:00:32;;;;;;;25.63;20.08;;;22.70;99.90;;;;;;5068911;28;20024;-62
2021/06/09 09:03:00;;;;;;;26.63;20.38;;;22.70;99.90;;;;;;5069552;28;20024;-62
2021/06/09 09:05:27;;;;;;;28.38;21.08;;;22.60;99.90;;;;;;5066349;28;20104;-62
2021/06/09 09:07:53;;;;;;;35.53;23.25;;;22.60;99.90;;;;;;5058010;28;20118;-63
2021/06/09 09:10:19;;;;;;;29.73;19.25;;;22.50;99.90;;;;;;5066517;28;20044;-61
2021/06/09 09:12:46;;;;;;;35.67;23.02;;;22.60;99.90;;;;;;5067438;28;20024;-63
2021/06/09 09:15:13;;;;;;;25.92;19.20;;;22.70;99.90;;;;;;5072039;28;20443;-62
2021/06/09 09:17:59;;;;;;;24.10;17.50;;;22.90;99.90;;;;;;5068122;28;20020;-61
2021/06/09 09:20:30;;;;;;;24.98;18.00;;;23.10;99.90;;;;;;5066546;28;20059;-62
2021/06/09 09:22:58;;;;;;;25.60;17.90;;;23.40;99.90;;;;;;5063883;28;20035;-62
2021/06/09 09:25:28;;;;;;;25.85;19.48;;;23.40;99.90;;;;;;5067548;28;20058;-63
2021/06/09 09:28:03;;;;;;;27.52;18.70;;;23.50;99.90;;;;;;5064540;28;20025;-61
2021/06/09 09:30:32;;;;;;;26.70;18.95;;;23.50;99.90;;;;;;5061274;28;20164;-63
2021/06/09 09:33:15;;;;;;;22.48;17.63;;;23.60;99.90;;;;;;5065236;28;20036;-64
2021/06/09 09:35:44;;;;;;;26.75;16.33;;;23.60;99.90;;;;;;5063223;28;20500;-63
2021/06/09 09:38:30;;;;;;;20.92;15.55;;;23.70;99.90;;;;;;5063318;28;20036;-64
2021/06/09 09:41:18;;;;;;;20.73;15.18;;;23.90;99.90;;;;;;5066631;28;20438;-63
2021/06/09 09:44:05;;;;;;;18.10;15.60;;;24.10;99.90;;;;;;5063783;28;20044;-62
2021/06/09 09:46:34;;;;;;;20.13;14.82;;;24.40;99.90;;;;;;5057042;28;20045;-62
2021/06/09 09:49:13;;;;;;;21.83;15.70;;;24.40;99.90;;;;;;5067097;28;20029;-62
2021/06/09 09:51:42;;;;;;;19.38;14.88;;;24.50;99.90;;;;;;5067239;28;20032;-62
2021/06/09 09:54:08;;;;;;;21.15;14.68;;;24.70;99.90;;;;;;5066078;28;20094;-61
2021/06/09 09:56:36;;;;;;;20.13;15.50;;;24.80;99.90;;;;;;5065189;28;20024;-62
2021/06/09 09:59:07;;;;;;;28.70;15.18;;;24.70;99.90;;;;;;5061705;28;20810;-63
2021/06/09 10:01:33;;;;;;;19.00;14.73;;;25.00;99.90;;;;;;5067670;28;20028;-63
2021/06/09 10:04:00;;;;;;;15.10;12.18;;;25.20;99.90;;;;;;5065762;28;20541;-63
2021/06/09 10:06:50;;;;;;;20.05;15.95;;;25.10;99.90;;;;;;5064420;28;20820;-63
2021/06/09 10:09:17;;;;;;;22.90;17.17;;;25.10;99.90;;;;;;5058325;28;20152;-61
2021/06/09 10:11:55;;;;;;;23.13;16.10;;;24.90;99.90;;;;;;5061096;28;20661;-62
2021/06/09 10:14:27;;;;;;;21.27;16.00;;;25.00;99.90;;;;;;5061816;28;20028;-63
2021/06/09 10:17:11;;;;;;;20.08;13.88;;;25.20;99.90;;;;;;5056881;28;20369;-63
2021/06/09 10:19:42;;;;;;;20.23;14.48;;;25.10;99.90;;;;;;5066776;28;20055;-62
2021/06/09 10:22:19;;;;;;;20.42;14.35;;;24.70;99.90;;;;;;5065053;28;20819;-63
2021/06/09 10:24:53;;;;;;;19.60;15.23;;;24.40;99.90;;;;;;5067164;28;20127;-63
2021/06/09 10:27:40;;;;;;;18.73;14.40;;;24.30;99.90;;;;;;5057994;28;20614;-64
2021/06/09 10:30:06;;;;;;;19.80;14.13;;;24.40;99.90;;;;;;5060481;28;20515;-63
2021/06/09 10:32:32;;;;;;;20.42;16.65;;;24.70;99.90;;;;;;5063397;28;20061;-63
2021/06/09 10:34:58;;;;;;;21.08;15.48;;;25.20;99.90;;;;;;5066344;28;20552;-64
2021/06/09 10:37:24;;;;;;;19.58;16.45;;;25.70;99.90;;;;;;5054364;28;20048;-64
2021/06/09 10:39:51;;;;;;;27.10;20.10;;;25.80;99.90;;;;;;5066355;28;20054;-63
2021/06/09 10:42:18;;;;;;;28.50;19.50;;;25.70;99.90;;;;;;5066394;28;20037;-64
2021/06/09 10:44:46;;;;;;;24.90;20.25;;;25.40;99.90;;;;;;5058621;28;20036;-63
2021/06/09 10:47:28;;;;;;;30.77;20.27;;;25.00;99.90;;;;;;5064595;28;20586;-64
2021/06/09 10:49:54;;;;;;;31.10;22.50;;;24.70;99.90;;;;;;5059273;28;20044;-64
2021/06/09 10:52:20;;;;;;;29.58;21.10;;;24.60;99.90;;;;;;5061684;28;20036;-65
2021/06/09 10:54:46;;;;;;;28.13;20.98;;;24.90;99.90;;;;;;5063462;28;20025;-65
2021/06/09 10:57:13;;;;;;;26.38;18.90;;;25.20;99.90;;;;;;5065023;28;20041;-65
2021/06/09 10:59:38;;;;;;;24.42;19.33;;;25.50;99.90;;;;;;5065565;28;20392;-65
2021/06/09 11:02:08;;;;;;;32.53;21.90;;;26.00;99.90;;;;;;5058671;28;20032;-65
2021/06/09 11:04:36;;;;;;;22.67;18.73;;;25.80;99.90;;;;;;5065063;28;20060;-65
2021/06/09 11:07:03;;;;;;;30.95;21.50;;;25.50;99.90;;;;;;5061192;28;20029;-65
2021/06/09 11:09:31;;;;;;;23.33;19.23;;;25.20;99.90;;;;;;5064937;28;20075;-63
2021/06/09 11:12:18;;;;;;;28.45;21.50;;;25.00;99.90;;;;;;5062730;28;20037;-57
2021/06/09 11:14:55;;;;;;;22.67;18.67;;;25.30;99.90;;;;;;5053627;28;20028;-57
2021/06/09 11:17:52;;;;;;;26.20;17.58;;;25.50;99.90;;;;;;5058224;28;20029;-57
2021/06/09 11:20:23;;;;;;;25.42;17.77;;;26.00;99.90;;;;;;5059860;28;20135;-61
2021/06/09 11:22:52;;;;;;;21.98;17.83;;;26.50;99.90;;;;;;5061876;28;20408;-60
2021/06/09 11:25:28;;;;;;;22.42;16.17;;;26.70;99.90;;;;;;5060137;28;20093;-59
2021/06/09 11:27:56;;;;;;;21.20;17.90;;;27.00;99.90;;;;;;5057565;28;20131;-60
2021/06/09 11:30:24;;;;;;;19.08;15.95;;;27.10;99.90;;;;;;5066953;28;20021;-58
2021/06/09 11:32:55;;;;;;;25.52;19.75;;;26.90;99.90;;;;;;5065811;28;20479;-58
2021/06/09 11:35:41;;;;;;;24.02;19.50;;;26.50;99.90;;;;;;5070326;28;20029;-59
2021/06/09 11:38:15;;;;;;;26.33;18.25;;;26.50;99.90;;;;;;5065142;28;20032;-58
2021/06/09 11:41:05;;;;;;;21.38;17.65;;;26.80;99.90;;;;;;5062872;28;20035;-60
2021/06/09 11:43:41;;;;;;;18.08;16.05;;;27.00;99.90;;;;;;5068354;28;20031;-58
2021/06/09 11:46:11;;;;;;;26.23;17.67;;;27.30;99.90;;;;;;5067524;28;21342;-62
2021/06/09 11:48:38;;;;;;;20.13;14.68;;;27.70;99.90;;;;;;5059669;28;20043;-58
2021/06/09 11:51:26;;;;;;;21.00;16.30;;;27.90;99.90;;;;;;5069446;28;20028;-57
2021/06/09 11:53:54;;;;;;;23.55;15.43;;;27.50;99.90;;;;;;5064056;28;20036;-62
2021/06/09 11:56:23;;;;;;;19.35;15.90;;;27.10;99.90;;;;;;5065099;28;20686;-57
2021/06/09 11:58:52;;;;;;;21.80;15.90;;;27.00;99.90;;;;;;5059623;28;20059;-62
2021/06/09 12:01:20;;;;;;;16.48;12.75;;;26.60;99.90;;;;;;5055359;28;20499;-59
2021/06/09 12:04:16;;;;;;;19.67;14.80;;;26.60;99.90;;;;;;5059301;28;20044;-61
2021/06/09 12:06:44;;;;;;;14.70;12.15;;;26.80;99.90;;;;;;5062016;28;20036;-59
2021/06/09 12:09:11;;;;;;;20.67;15.43;;;27.10;99.90;;;;;;5067230;28;20589;-56
2021/06/09 12:11:39;;;;;;;22.02;17.02;;;27.50;99.90;;;;;;5061657;28;20056;-62
2021/06/09 12:14:24;;;;;;;19.38;15.10;;;27.60;99.90;;;;;;5053201;28;20024;-60
2021/06/09 12:16:51;;;;;;;;;;;27.80;99.90;;;;;;5056409;28;20131;-60
2021/06/09 12:19:30;;;;;;;17.83;13.30;;;27.90;99.90;;;;;;5058725;28;19917;-60
2021/06/09 12:21:59;;;;;;;15.80;13.35;;;28.10;99.90;;;;;;5037671;28;20033;-59
2021/06/09 12:24:24;;;;;;;16.83;11.98;;;27.50;99.90;;;;;;5059917;28;20032;-60
2021/06/09 12:26:56;;;;;;;12.43;10.50;;;27.10;99.90;;;;;;5059342;28;20028;-57
2021/06/09 12:29:27;;;;;;;15.70;12.07;;;27.30;99.90;;;;;;5063305;28;20020;-60
2021/06/09 12:31:54;;;;;;;16.92;13.48;;;27.60;99.90;;;;;;5061920;28;20040;-62
2021/06/09 12:34:31;;;;;;;14.55;11.25;;;27.80;99.90;;;;;;5062014;28;20033;-61
2021/06/09 12:37:04;;;;;;;14.25;10.52;;;27.90;99.90;;;;;;5065891;28;20025;-61
2021/06/09 12:39:30;;;;;;;17.55;11.68;;;28.20;99.90;;;;;;5062179;28;20020;-60
2021/06/09 12:41:56;;;;;;;12.38;10.30;;;28.70;98.60;;;;;;5057047;28;20071;-61
2021/06/09 12:44:23;;;;;;;14.38;11.15;;;28.80;99.90;;;;;;5062596;28;20127;-59
2021/06/09 12:47:01;;;;;;;14.95;11.40;;;29.10;98.90;;;;;;5060536;28;20102;-61